Share

Coulee Dam, WA (99116)

3 miles ESE of Grand Coulee Dam, in Lincoln County, WA (KWAGRAND5) Elev 1575 ft | 47.92 °N, 118.94 °W | Change Station

Current weather conditions updated 1 minute ago

Partly Cloudy
Partly Cloudy
60.5 °F
Feels Like 60.5 °F
N
2.0
Wind Variable Wind from SSE
Gusts 4.0 mph
Sunrise 5:58 AM
Sunset 7:52 PM
Moon Waning Gibbous

Today is forecast to be nearly the same temperature as yesterday.

Pressure 29.82 in
Visibility 10.0 miles
Clouds Few 10000 ft
Dew Point 26 °F
Humidity 26%
Rainfall 0.00 in
Snow Depth Not available.
UV 7 out of 16
Pollen 10.10 out of 12
Air Quality Not available.
Flu Activity Sporadic
METAR KOMK 192053Z AUTO VRB06KT 10SM FEW100 15/M03 A2980 RMK AO2 SLP097 T01501028 58022

More Conditions Fewer Conditions

Pressure 29.82 in
Visibility 10.0 miles
Clouds Few 10000 ft
Dew Point 26 °F
Humidity 26%
Rainfall 0.00 in
Snow Depth Not available.
UV 7 out of 16
Pollen 10.10 out of 12
Air Quality Not available.
Flu Activity Sporadic
METAR KOMK 192053Z AUTO VRB06KT 10SM FEW100 15/M03 A2980 RMK AO2 SLP097 T01501028 58022

More Conditions Fewer Conditions

10-Day Weather Forecast

Almanac

Astronomy

Apr. 19, 2014 Rise Set
Actual Time 5:58 AM PDT 7:52 PM PDT
Civil Twilight 5:25 AM PDT 8:25 PM PDT
Nautical Twilight 4:45 AM PDT 9:06 PM PDT
Astronomical Twilight 4:00 AM PDT 9:51 PM PDT
Moon No Moon Rise 9:11 AM PDT
Length of Visible Light 14h 59m
Length of Day
13h 53m
Tomorrow will be 3m 18s longer.
Waning Gibbous, 76% of the Moon is Illuminated
Today
Waning Gibbous
Apr 22
Last Quarter
Apr 29
New
May 6
First Quarter
May 14
Full

Today's Extremes

State Highs State Lows

Community

  • Skirting the Horizon
    Skirting the Horizon
  • Piriapolis
    Piriapolis
  • A Glorious Morning
    A Glorious Morning
  • Tender Rays Of Hope
    Tender Rays Of Hope
  • Bleeding Hearts
    Bleeding Hearts

WunderPhotos

Upload Photos

1,702,907 photos uploaded!

WunderBlogs® & News

Nearby

Snow Depth

Station Depth Elevation
Moses Mountain 17 in 5300 ft
Salmon Meadows 0 in 4500 ft
Sentinel Butte 24 in 4920 ft
Pope Ridge 20 in 3540 ft
Upper Wheeler 17 in 4400 ft

Coastal Water Temperatures

Place Temperature
No Stations Reporting

Earthquake Activity

City Distance Mag. Time & Date
No recent earthquake activity has been reported nearby.
Minimum magnitude displayed is 2.5.

Nearby Weather Stations

Station Location Temp. Dew Point Humidity Wind Precip. Elev Updated Type
3 miles ESE of Grand Coulee Dam, in Linc, Grand Coulee, WA 60.5 °F 26 °F 26% SSE  at  2.0 mph 0.00 in / hr 1575 ft 2:16 PM PDT Rapid Fire
RAWS NESPELEM WA, Elmer City, WA 55 °F 29 °F 36% SSW  at  6 mph 0.00 in / hr 1899 ft 12:57 PM PDT MADIS

Show More Stations Show Fewer Stations

What do you think?

We're not finished. Please let us know what you like, what you don't like, and what you are still missing.